createdAt,value
2018-10-02T00:00:32.478Z,101520.98
2018-10-02T00:03:00.792Z,101515.00
2018-10-02T00:05:29.129Z,101510.70
2018-10-02T00:07:57.410Z,101505.46
2018-10-02T00:10:25.826Z,101495.31
2018-10-02T00:13:03.126Z,101489.59
2018-10-02T00:15:31.471Z,101489.01
2018-10-02T00:17:59.787Z,101490.67
2018-10-02T00:20:28.127Z,101484.01
2018-10-02T00:22:56.482Z,101476.37
2018-10-02T00:25:24.792Z,101474.22
2018-10-02T00:27:53.126Z,101474.67
2018-10-02T00:30:21.416Z,101482.55
2018-10-02T00:32:49.748Z,101481.97
2018-10-02T00:35:18.094Z,101478.28
2018-10-02T00:37:46.407Z,101488.39
2018-10-02T00:40:14.699Z,101479.82
2018-10-02T00:42:43.015Z,101474.69
2018-10-02T00:45:11.329Z,101475.27
2018-10-02T00:47:39.654Z,101470.16
2018-10-02T00:50:08.005Z,101461.91
2018-10-02T00:52:36.313Z,101467.52
2018-10-02T00:55:04.652Z,101467.64
2018-10-02T00:57:33.820Z,101469.78
2018-10-02T01:00:02.355Z,101470.13
2018-10-02T01:02:30.670Z,101475.64
2018-10-02T01:04:59.050Z,101478.86
2018-10-02T01:07:27.385Z,101473.61
2018-10-02T01:09:55.733Z,101477.45
2018-10-02T01:12:24.024Z,101476.48
2018-10-02T01:14:52.361Z,101468.48
2018-10-02T01:17:20.667Z,101469.56
2018-10-02T01:19:49.011Z,101460.37
2018-10-02T01:22:17.322Z,101467.19
2018-10-02T01:24:46.176Z,101464.09
2018-10-02T01:27:14.483Z,101463.53
2018-10-02T01:29:44.214Z,101472.11
2018-10-02T01:32:12.514Z,101465.45
2018-10-02T01:34:41.530Z,101458.05
2018-10-02T01:37:09.865Z,101465.31
2018-10-02T01:39:38.166Z,101463.91
2018-10-02T01:42:06.504Z,101451.26
2018-10-02T01:44:34.868Z,101441.94
2018-10-02T01:47:03.263Z,101438.97
2018-10-02T01:49:31.592Z,101439.66
2018-10-02T01:51:59.916Z,101439.08
2018-10-02T01:54:28.746Z,101444.33
2018-10-02T01:56:57.077Z,101437.28
2018-10-02T01:59:25.787Z,101434.80
2018-10-02T02:01:54.112Z,101433.93
2018-10-02T02:04:22.422Z,101433.00
2018-10-02T02:06:51.310Z,101428.23
2018-10-02T02:09:19.677Z,101425.82
2018-10-02T02:11:47.983Z,101425.38
2018-10-02T02:14:16.279Z,101431.31
2018-10-02T02:16:44.607Z,101427.13
2018-10-02T02:19:12.960Z,101424.05
2018-10-02T02:21:42.513Z,101420.81
2018-10-02T02:24:10.819Z,101416.78
2018-10-02T02:26:39.992Z,101419.75
2018-10-02T02:29:08.356Z,101419.85
2018-10-02T02:31:36.669Z,101420.09
2018-10-02T02:34:04.984Z,101419.85
2018-10-02T02:36:33.654Z,101413.67
2018-10-02T02:39:01.947Z,101413.19
2018-10-02T02:41:30.286Z,101410.91
2018-10-02T02:43:58.587Z,101399.09
2018-10-02T02:46:26.887Z,101405.42
2018-10-02T02:49:00.520Z,101400.66
2018-10-02T02:51:30.739Z,101397.44
2018-10-02T02:53:59.055Z,101391.81
2018-10-02T02:56:28.124Z,101392.64
2018-10-02T02:58:57.125Z,101383.23
2018-10-02T03:01:25.449Z,101383.83
2018-10-02T03:03:53.746Z,101385.97
2018-10-02T03:06:22.050Z,101380.37
2018-10-02T03:08:50.356Z,101375.12
2018-10-02T03:11:18.692Z,101365.93
2018-10-02T03:13:47.353Z,101359.02
2018-10-02T03:16:15.669Z,101353.28
2018-10-02T03:18:43.997Z,101353.05
2018-10-02T03:21:12.339Z,101350.66
2018-10-02T03:23:40.663Z,101342.91
2018-10-02T03:26:09.243Z,101345.30
2018-10-02T03:28:37.672Z,101337.91
2018-10-02T03:31:06.390Z,101341.95
2018-10-02T03:33:34.752Z,101335.38
2018-10-02T03:36:03.477Z,101320.36
2018-10-02T03:38:31.775Z,101304.13
2018-10-02T03:41:00.103Z,101303.64
2018-10-02T03:43:28.387Z,101297.22
2018-10-02T03:45:56.715Z,101292.56
2018-10-02T03:48:25.216Z,101296.84
2018-10-02T03:50:53.543Z,101302.92
2018-10-02T03:53:21.858Z,101300.19
2018-10-02T03:55:51.395Z,101302.09
2018-10-02T03:58:19.843Z,101290.63
2018-10-02T04:00:49.235Z,101282.16
2018-10-02T04:03:17.603Z,101283.82
2018-10-02T04:05:46.058Z,101290.63
2018-10-02T04:08:14.484Z,101288.48
2018-10-02T04:10:42.812Z,101275.70
2018-10-02T04:13:11.151Z,101276.67
2018-10-02T04:15:39.482Z,101261.74
2018-10-02T04:18:07.795Z,101261.02
2018-10-02T04:20:36.140Z,101269.03
2018-10-02T04:23:04.484Z,101269.38
2018-10-02T04:25:32.919Z,101264.84
2018-10-02T04:28:01.321Z,101261.26
2018-10-02T04:30:29.539Z,101265.06
2018-10-02T04:32:57.886Z,101262.08
2018-10-02T04:35:26.203Z,101253.83
2018-10-02T04:37:54.534Z,101251.34
2018-10-02T04:40:22.876Z,101249.68
2018-10-02T04:42:51.228Z,101250.02
2018-10-02T04:45:19.553Z,101243.46
2018-10-02T04:47:47.912Z,101242.73
2018-10-02T04:50:16.289Z,101237.23
2018-10-02T04:52:44.605Z,101228.87
2018-10-02T04:55:12.982Z,101221.71
2018-10-02T04:57:41.241Z,101219.54
2018-10-02T05:00:09.582Z,101227.41
2018-10-02T05:02:37.899Z,101227.56
2018-10-02T05:05:06.268Z,101224.34
2018-10-02T05:07:36.428Z,101213.58
2018-10-02T05:10:04.759Z,101212.13
2018-10-02T05:12:33.096Z,101208.19
2018-10-02T05:15:02.328Z,101210.22
2018-10-02T05:17:30.636Z,101199.23
2018-10-02T05:19:59.292Z,101199.34
2018-10-02T05:22:27.606Z,101206.63
2018-10-02T05:24:55.931Z,101208.52
2018-10-02T05:27:24.311Z,101203.13
2018-10-02T05:29:52.597Z,101208.38
2018-10-02T05:32:20.868Z,101213.52
2018-10-02T05:34:49.184Z,101217.12
2018-10-02T05:37:21.252Z,101220.78
2018-10-02T05:39:49.546Z,101214.44
2018-10-02T05:42:17.913Z,101216.95
2018-10-02T05:44:46.238Z,101211.56
2018-10-02T05:47:14.549Z,101211.70
2018-10-02T05:49:42.925Z,101214.53
2018-10-02T05:52:11.269Z,101193.89
2018-10-02T05:54:39.623Z,101193.08
2018-10-02T05:57:08.346Z,101196.94
2018-10-02T05:59:37.005Z,101195.14
2018-10-02T06:02:05.940Z,101194.65
2018-10-02T06:04:34.308Z,101187.48
2018-10-02T06:07:02.632Z,101174.46
2018-10-02T06:09:30.950Z,101166.24
2018-10-02T06:11:59.275Z,101159.53
2018-10-02T06:14:27.966Z,101150.71
2018-10-02T06:16:56.349Z,101139.34
2018-10-02T06:19:24.656Z,101144.40
2018-10-02T06:21:53.019Z,101147.38
2018-10-02T06:24:21.375Z,101135.41
2018-10-02T06:26:49.949Z,101135.30
2018-10-02T06:29:18.324Z,101139.95
2018-10-02T06:31:46.761Z,101141.27
2018-10-02T06:34:15.071Z,101142.92
2018-10-02T06:36:43.507Z,101138.72
2018-10-02T06:39:11.783Z,101142.17
2018-10-02T06:41:40.109Z,101142.75
2018-10-02T06:44:08.488Z,101132.95
2018-10-02T06:46:36.897Z,101135.30
2018-10-02T06:49:05.264Z,101130.27
2018-10-02T06:51:33.746Z,101117.02
2018-10-02T06:54:02.036Z,101114.24
2018-10-02T06:56:30.438Z,101113.02
2018-10-02T06:58:58.720Z,101125.06
2018-10-02T07:01:27.069Z,101132.13
2018-10-02T07:03:55.510Z,101118.50
2018-10-02T07:06:23.853Z,101124.58
2018-10-02T07:08:52.253Z,101123.27
2018-10-02T07:11:20.732Z,101115.27
2018-10-02T07:13:49.080Z,101111.44
2018-10-02T07:16:17.413Z,101111.33
2018-10-02T07:18:45.749Z,101104.13
2018-10-02T07:21:14.820Z,101090.95
2018-10-02T07:23:43.144Z,101087.45
2018-10-02T07:26:11.896Z,101097.55
2018-10-02T07:28:40.372Z,101095.49
2018-10-02T07:31:08.894Z,101093.91
2018-10-02T07:33:37.104Z,101100.07
2018-10-02T07:36:05.437Z,101104.66
2018-10-02T07:38:34.056Z,101100.22
2018-10-02T07:41:03.489Z,101107.13
2018-10-02T07:43:31.826Z,101109.77
2018-10-02T07:46:00.154Z,101104.36
2018-10-02T07:48:28.550Z,101110.93
2018-10-02T07:50:56.956Z,101104.36
2018-10-02T07:53:25.337Z,101081.89
2018-10-02T07:55:53.788Z,101089.36
2018-10-02T07:58:22.091Z,101089.47
2018-10-02T08:00:50.604Z,101088.76
2018-10-02T08:03:19.052Z,101092.26
2018-10-02T08:05:47.473Z,101093.38
2018-10-02T08:08:15.797Z,101086.66
2018-10-02T08:10:44.119Z,101090.27
2018-10-02T08:13:12.462Z,101091.58
2018-10-02T08:15:42.335Z,101078.55
2018-10-02T08:18:11.811Z,101068.89
2018-10-02T08:20:41.174Z,101053.41
2018-10-02T08:23:09.477Z,101059.12
2018-10-02T08:25:41.916Z,101055.74
2018-10-02T08:28:10.544Z,101064.53
2018-10-02T08:30:38.918Z,101067.92
2018-10-02T08:33:07.297Z,101074.83
2018-10-02T08:35:35.647Z,101071.73
2018-10-02T08:38:03.962Z,101062.91
2018-10-02T08:40:32.316Z,101064.37
2018-10-02T08:43:00.805Z,101056.00
2018-10-02T08:45:29.116Z,101054.41
2018-10-02T08:47:57.480Z,101046.16
2018-10-02T08:50:25.810Z,101036.41
2018-10-02T08:52:54.642Z,101039.25
2018-10-02T08:55:22.991Z,101023.86
2018-10-02T08:57:51.279Z,101029.27
2018-10-02T09:00:19.756Z,101008.61
2018-10-02T09:02:48.852Z,101015.49
2018-10-02T09:05:17.201Z,101013.72
2018-10-02T09:07:45.533Z,101007.47
2018-10-02T09:10:14.153Z,101004.56
2018-10-02T09:12:42.621Z,100998.52
2018-10-02T09:15:12.324Z,100992.75
2018-10-02T09:17:39.308Z,100998.32
2018-10-02T09:20:07.665Z,100998.02
2018-10-02T09:22:36.016Z,100996.00
2018-10-02T09:25:05.263Z,101002.61
2018-10-02T09:27:33.773Z,100993.05
2018-10-02T09:30:08.415Z,101006.50
2018-10-02T09:32:42.053Z,100996.48
2018-10-02T09:35:15.637Z,101005.49
2018-10-02T09:37:49.345Z,100994.13
2018-10-02T09:40:23.083Z,100995.22
2018-10-02T09:42:56.651Z,100985.72
2018-10-02T09:45:25.012Z,100992.75
2018-10-02T09:47:53.368Z,100992.33
2018-10-02T09:50:21.741Z,100995.61
2018-10-02T09:52:50.961Z,100998.03
2018-10-02T09:55:19.303Z,100982.98
2018-10-02T09:57:47.628Z,100992.33
2018-10-02T10:00:22.482Z,101000.05
2018-10-02T10:02:55.667Z,100985.62
2018-10-02T10:05:24.239Z,100986.50
2018-10-02T10:07:52.838Z,100980.56
2018-10-02T10:10:21.217Z,100980.63
2018-10-02T10:12:49.639Z,100981.67
2018-10-02T10:15:17.988Z,100978.34
2018-10-02T10:17:46.360Z,100982.23
2018-10-02T10:20:14.840Z,100972.73
2018-10-02T10:22:43.363Z,100970.16
2018-10-02T10:25:11.664Z,100970.56
2018-10-02T10:27:40.145Z,100963.00
2018-10-02T10:30:08.811Z,100974.31
2018-10-02T10:32:37.429Z,100981.38
2018-10-02T10:35:06.255Z,100958.09
2018-10-02T10:37:34.795Z,100970.59
2018-10-02T10:40:03.759Z,100971.75
2018-10-02T10:42:32.267Z,100969.41
2018-10-02T10:45:00.888Z,100973.51
2018-10-02T10:47:29.372Z,100966.92
2018-10-02T10:49:57.997Z,100976.69
2018-10-02T10:52:26.752Z,100971.08
2018-10-02T10:55:08.435Z,100967.52
2018-10-02T10:57:36.930Z,100975.14
2018-10-02T11:00:06.468Z,100967.78
2018-10-02T11:02:34.837Z,100965.89
2018-10-02T11:05:03.218Z,100959.26
2018-10-02T11:07:31.508Z,100959.39
2018-10-02T11:09:59.845Z,100956.75
2018-10-02T11:12:28.168Z,100951.77
2018-10-02T11:14:56.514Z,100963.57
2018-10-02T11:17:25.205Z,100959.83
2018-10-02T11:19:53.564Z,100957.78
2018-10-02T11:22:26.542Z,100947.74
2018-10-02T11:24:54.889Z,100950.45
2018-10-02T11:27:23.282Z,100951.28
2018-10-02T11:29:51.984Z,100947.69
2018-10-02T11:32:20.301Z,100945.80
2018-10-02T11:34:48.608Z,100937.55
2018-10-02T11:37:17.000Z,100940.84
2018-10-02T11:39:45.313Z,100938.45
2018-10-02T11:42:13.668Z,100936.48
2018-10-02T11:44:42.068Z,100934.70
2018-10-02T11:47:10.613Z,100924.20
2018-10-02T11:49:39.253Z,100921.02
2018-10-02T11:52:07.630Z,100920.97
2018-10-02T11:54:35.983Z,100917.34
2018-10-02T11:57:04.301Z,100909.14
2018-10-02T11:59:32.968Z,100905.18
2018-10-02T12:02:01.334Z,100918.49
2018-10-02T12:04:29.701Z,100909.77
2018-10-02T12:06:58.231Z,100904.85
2018-10-02T12:09:26.542Z,100908.05
2018-10-02T12:11:54.875Z,100895.52
2018-10-02T12:14:23.297Z,100898.00
2018-10-02T12:16:51.631Z,100887.88
2018-10-02T12:19:20.048Z,100886.27
2018-10-02T12:21:48.355Z,100878.31
2018-10-02T12:24:16.715Z,100882.00
2018-10-02T12:26:45.043Z,100879.42
2018-10-02T12:29:13.393Z,100883.08
2018-10-02T12:31:41.697Z,100882.72
2018-10-02T12:34:10.088Z,100879.89
2018-10-02T12:36:38.457Z,100879.23
2018-10-02T12:39:07.957Z,100888.16
2018-10-02T12:41:36.508Z,100884.06
2018-10-02T12:44:04.916Z,100885.22
2018-10-02T12:46:33.381Z,100890.03
2018-10-02T12:49:01.852Z,100888.93
2018-10-02T12:51:30.262Z,100877.77
2018-10-02T12:53:58.766Z,100877.60
2018-10-02T12:56:27.097Z,100876.15
2018-10-02T12:58:55.498Z,100882.08
2018-10-02T13:01:23.867Z,100882.25
2018-10-02T13:03:52.194Z,100883.05
2018-10-02T13:06:20.500Z,100872.62
2018-10-02T13:08:48.840Z,100885.16
2018-10-02T13:11:17.140Z,100888.30
2018-10-02T13:13:45.618Z,100881.34
2018-10-02T13:16:13.943Z,100882.64
2018-10-02T13:18:42.262Z,100884.17
2018-10-02T13:21:10.600Z,100892.61
2018-10-02T13:23:38.985Z,100897.39
2018-10-02T13:26:07.296Z,100899.02
2018-10-02T13:28:35.637Z,100896.05
2018-10-02T13:31:03.963Z,100902.51
2018-10-02T13:33:32.336Z,100897.03
2018-10-02T13:36:00.944Z,100896.45
2018-10-02T13:38:29.269Z,100897.80
2018-10-02T13:40:57.620Z,100914.16
2018-10-02T13:43:25.957Z,100912.73
2018-10-02T13:45:54.328Z,100911.69
2018-10-02T13:48:22.680Z,100911.08
2018-10-02T13:50:51.210Z,100906.98
2018-10-02T13:53:19.540Z,100909.14
2018-10-02T13:55:47.843Z,100912.47
2018-10-02T13:58:16.353Z,100897.63
2018-10-02T14:00:44.677Z,100910.98
2018-10-02T14:03:13.093Z,100903.75
2018-10-02T14:05:41.406Z,100913.18
2018-10-02T14:08:09.787Z,100902.64
2018-10-02T14:10:38.198Z,100894.03
2018-10-02T14:13:06.905Z,100893.23
2018-10-02T14:15:35.358Z,100894.10
2018-10-02T14:18:03.665Z,100889.97
2018-10-02T14:20:31.987Z,100887.70
2018-10-02T14:23:00.350Z,100889.87
2018-10-02T14:25:28.636Z,100884.41
2018-10-02T14:27:57.313Z,100879.49
2018-10-02T14:30:25.773Z,100879.69
2018-10-02T14:32:54.068Z,100894.05
2018-10-02T14:35:22.631Z,100891.41
2018-10-02T14:37:51.016Z,100889.27
2018-10-02T14:40:19.398Z,100888.45
2018-10-02T14:42:47.726Z,100893.59
2018-10-02T14:45:16.219Z,100890.28
2018-10-02T14:47:44.593Z,100899.40
2018-10-02T14:50:12.944Z,100901.72
2018-10-02T14:52:41.241Z,100908.98
2018-10-02T14:55:10.148Z,100903.44
2018-10-02T14:57:38.472Z,100901.52
2018-10-02T15:00:07.169Z,100907.81
2018-10-02T15:02:35.657Z,100907.86
2018-10-02T15:05:03.997Z,100917.62
2018-10-02T15:07:32.339Z,100902.25
2018-10-02T15:10:00.636Z,100902.44
2018-10-02T15:12:28.935Z,100900.85
2018-10-02T15:14:57.253Z,100902.64
2018-10-02T15:17:25.609Z,100909.28
2018-10-02T15:19:54.172Z,100913.08
2018-10-02T15:22:22.844Z,100922.02
2018-10-02T15:24:51.148Z,100919.37
2018-10-02T15:27:19.492Z,100918.36
2018-10-02T15:29:47.836Z,100918.22
2018-10-02T15:32:16.191Z,100915.25
2018-10-02T15:34:44.526Z,100905.64
2018-10-02T15:37:12.882Z,100916.05
2018-10-02T15:39:41.187Z,100907.79
2018-10-02T15:42:09.750Z,100902.17
2018-10-02T15:44:38.355Z,100899.03
2018-10-02T15:47:06.642Z,100902.31
2018-10-02T15:49:34.950Z,100897.70
2018-10-02T15:52:03.312Z,100891.27
2018-10-02T15:54:31.596Z,100889.09
2018-10-02T15:56:59.995Z,100903.31
2018-10-02T15:59:28.344Z,100883.75
2018-10-02T16:01:56.889Z,100898.36
2018-10-02T16:04:25.459Z,100895.70
2018-10-02T16:06:53.856Z,100903.97
2018-10-02T16:09:22.150Z,100895.70
2018-10-02T16:11:50.803Z,100905.14
2018-10-02T16:14:19.061Z,100922.80
2018-10-02T16:16:47.523Z,100919.34
2018-10-02T16:19:15.815Z,100914.41
2018-10-02T16:21:44.160Z,100915.55
2018-10-02T16:24:13.067Z,100917.19
2018-10-02T16:26:41.569Z,100917.05
2018-10-02T16:29:09.974Z,100919.52
2018-10-02T16:31:38.391Z,100914.58
2018-10-02T16:34:06.768Z,100916.05
2018-10-02T16:36:35.198Z,100923.66
2018-10-02T16:39:04.804Z,100924.80
2018-10-02T16:41:33.240Z,100934.73
2018-10-02T16:44:01.531Z,100944.50
2018-10-02T16:46:29.848Z,100948.47
2018-10-02T16:48:58.196Z,100952.94
2018-10-02T16:51:26.778Z,100954.11
2018-10-02T16:53:55.399Z,100966.67
2018-10-02T16:56:23.753Z,100959.73
2018-10-02T16:58:52.077Z,100964.48
2018-10-02T17:01:20.396Z,100973.56
2018-10-02T17:03:49.611Z,100984.78
2018-10-02T17:06:17.991Z,100982.60
2018-10-02T17:08:46.499Z,100994.67
2018-10-02T17:11:14.874Z,100991.67
2018-10-02T17:13:43.308Z,100993.31
2018-10-02T17:16:11.666Z,100993.66
2018-10-02T17:18:39.960Z,101001.55
2018-10-02T17:21:08.285Z,101006.02
2018-10-02T17:23:36.646Z,101006.84
2018-10-02T17:26:04.957Z,101009.66
2018-10-02T17:28:33.294Z,101016.95
2018-10-02T17:31:01.650Z,101014.64
2018-10-02T17:33:30.036Z,101029.86
2018-10-02T17:35:58.545Z,101023.72
2018-10-02T17:38:26.919Z,101025.53
2018-10-02T17:40:55.281Z,101027.16
2018-10-02T17:43:23.702Z,101025.63
2018-10-02T17:45:52.063Z,101030.89
2018-10-02T17:48:20.840Z,101046.70
2018-10-02T17:50:49.499Z,101049.66
2018-10-02T17:53:18.129Z,101051.47
2018-10-02T17:55:46.575Z,101049.31
2018-10-02T17:58:14.904Z,101058.18
2018-10-02T18:00:43.174Z,101064.63
2018-10-02T18:03:11.485Z,101060.30
2018-10-02T18:05:39.840Z,101062.79
2018-10-02T18:08:08.353Z,101061.28
2018-10-02T18:10:36.760Z,101062.58
2018-10-02T18:13:05.080Z,101066.48
2018-10-02T18:15:33.441Z,101068.78
2018-10-02T18:18:01.822Z,101063.00
2018-10-02T18:20:30.895Z,101060.69
2018-10-02T18:22:59.391Z,101062.50
2018-10-02T18:25:27.742Z,101067.65
2018-10-02T18:27:56.087Z,101080.55
2018-10-02T18:30:24.572Z,101080.19
2018-10-02T18:32:53.019Z,101079.84
2018-10-02T18:35:21.414Z,101084.63
2018-10-02T18:37:49.904Z,101086.44
2018-10-02T18:40:18.268Z,101073.21
2018-10-02T18:42:46.605Z,101084.10
2018-10-02T18:45:14.925Z,101076.31
2018-10-02T18:47:43.216Z,101077.17
2018-10-02T18:50:11.549Z,101091.01
2018-10-02T18:52:39.904Z,101087.05
2018-10-02T18:55:08.239Z,101091.48
2018-10-02T18:57:36.555Z,101089.94
2018-10-02T19:00:05.026Z,101089.73
2018-10-02T19:02:33.365Z,101084.30
2018-10-02T19:05:01.773Z,101093.70
2018-10-02T19:07:30.129Z,101087.63
2018-10-02T19:09:58.802Z,101101.32
2018-10-02T19:12:27.166Z,101101.81
2018-10-02T19:14:55.586Z,101096.67
2018-10-02T19:17:23.903Z,101099.80
2018-10-02T19:19:57.444Z,101112.81
2018-10-02T19:22:25.893Z,101105.85
2018-10-02T19:24:54.343Z,101097.05
2018-10-02T19:27:22.808Z,101110.73
2018-10-02T19:29:56.493Z,101110.08
2018-10-02T19:32:24.956Z,101117.14
2018-10-02T19:34:53.344Z,101123.08
2018-10-02T19:37:27.075Z,101128.69
2018-10-02T19:39:55.468Z,101130.47
2018-10-02T19:42:23.856Z,101130.14
2018-10-02T19:44:52.243Z,101138.52
2018-10-02T19:47:20.559Z,101150.77
2018-10-02T19:49:48.881Z,101157.37
2018-10-02T19:52:17.860Z,101156.67
2018-10-02T19:54:47.133Z,101165.42
2018-10-02T19:57:17.043Z,101164.92
2018-10-02T19:59:45.541Z,101163.61
2018-10-02T20:02:13.903Z,101169.88
2018-10-02T20:04:42.191Z,101162.28
2018-10-02T20:07:10.608Z,101166.25
2018-10-02T20:09:38.916Z,101168.88
2018-10-02T20:12:07.517Z,101167.73
2018-10-02T20:14:35.832Z,101163.56
2018-10-02T20:17:04.158Z,101166.53
2018-10-02T20:19:32.952Z,101172.47
2018-10-02T20:22:01.375Z,101170.33
2018-10-02T20:24:29.680Z,101167.86
2018-10-02T20:26:58.001Z,101171.06
2018-10-02T20:29:26.293Z,101171.23
2018-10-02T20:31:54.617Z,101168.99
2018-10-02T20:34:22.922Z,101173.16
2018-10-02T20:36:51.261Z,101175.13
2018-10-02T20:39:19.651Z,101177.81
2018-10-02T20:41:48.002Z,101190.09
2018-10-02T20:44:16.320Z,101185.01
2018-10-02T20:46:44.621Z,101192.27
2018-10-02T20:49:13.011Z,101184.52
2018-10-02T20:51:41.264Z,101193.95
2018-10-02T20:54:09.573Z,101198.91
2018-10-02T20:56:37.944Z,101190.36
2018-10-02T20:59:06.293Z,101186.73
2018-10-02T21:01:34.600Z,101183.46
2018-10-02T21:04:02.944Z,101184.58
2018-10-02T21:06:31.323Z,101181.45
2018-10-02T21:08:59.634Z,101176.46
2018-10-02T21:11:27.979Z,101184.55
2018-10-02T21:13:56.265Z,101181.41
2018-10-02T21:16:24.602Z,101187.03
2018-10-02T21:18:53.017Z,101184.88
2018-10-02T21:21:21.348Z,101188.34
2018-10-02T21:23:49.672Z,101182.11
2018-10-02T21:26:17.979Z,101182.44
2018-10-02T21:28:46.469Z,101183.63
2018-10-02T21:31:14.765Z,101173.06
2018-10-02T21:33:43.081Z,101181.11
2018-10-02T21:36:11.468Z,101181.61
2018-10-02T21:38:39.770Z,101173.19
2018-10-02T21:41:08.113Z,101178.34
2018-10-02T21:43:36.442Z,101172.70
2018-10-02T21:46:04.840Z,101166.09
2018-10-02T21:48:33.301Z,101173.89
2018-10-02T21:51:01.624Z,101169.13
2018-10-02T21:53:30.092Z,101176.39
2018-10-02T21:55:58.531Z,101177.58
2018-10-02T21:58:27.033Z,101181.73
2018-10-02T22:00:59.904Z,101181.88
2018-10-02T22:03:28.450Z,101184.52
2018-10-02T22:05:56.770Z,101181.55
2018-10-02T22:08:25.652Z,101184.81
2018-10-02T22:10:54.030Z,101185.80
2018-10-02T22:13:22.472Z,101185.80
2018-10-02T22:15:50.978Z,101191.09
2018-10-02T22:18:19.497Z,101189.77
2018-10-02T22:20:47.892Z,101191.58
2018-10-02T22:23:16.277Z,101189.90
2018-10-02T22:25:44.598Z,101189.56
2018-10-02T22:28:12.952Z,101193.86
2018-10-02T22:30:41.268Z,101191.58
2018-10-02T22:33:09.672Z,101197.00
2018-10-02T22:35:37.953Z,101193.03
2018-10-02T22:38:06.439Z,101187.09
2018-10-02T22:40:34.918Z,101186.27
2018-10-02T22:43:03.193Z,101183.13
2018-10-02T22:45:31.522Z,101184.78
2018-10-02T22:47:59.846Z,101182.97
2018-10-02T22:50:28.413Z,101180.48
2018-10-02T22:52:56.816Z,101182.47
2018-10-02T22:55:25.228Z,101182.83
2018-10-02T22:57:53.590Z,101184.98
2018-10-02T23:00:21.879Z,101192.91
2018-10-02T23:02:50.499Z,101190.39
2018-10-02T23:05:18.818Z,101186.30
2018-10-02T23:07:47.172Z,101187.26
2018-10-02T23:10:15.672Z,101189.87
2018-10-02T23:12:44.009Z,101187.88
2018-10-02T23:15:12.370Z,101195.45
2018-10-02T23:17:40.692Z,101200.06
2018-10-02T23:20:09.055Z,101195.28
2018-10-02T23:22:37.357Z,101210.23
2018-10-02T23:25:05.711Z,101210.39
2018-10-02T23:27:34.057Z,101207.88
2018-10-02T23:30:02.398Z,101215.47
2018-10-02T23:32:30.767Z,101214.16
2018-10-02T23:34:59.064Z,101220.27
2018-10-02T23:37:27.445Z,101214.98
2018-10-02T23:39:55.776Z,101219.77
2018-10-02T23:42:24.203Z,101232.34
2018-10-02T23:44:52.547Z,101232.34
2018-10-02T23:47:20.852Z,101230.53
2018-10-02T23:49:49.198Z,101235.66
2018-10-02T23:52:17.551Z,101227.27
2018-10-02T23:54:45.873Z,101229.21
2018-10-02T23:57:14.250Z,101235.08
2018-10-02T23:59:42.622Z,101237.27
